Monday, January 21, 2019, 5:21 PM EST
Back to Local

KPNE, N.e. Philadelphia Airport

Location: Philadelphia, PA, United States Lat: 40.083
Local Time: 5:21 PM EST (22:21 GMT) Lon: -75.017
Time Zone: US/Eastern Elev: 121 ft

Show me the last for .
Show Coded

Time T Td Feel RH Dir Speed Gust Alt SLP Vis Weather Sky Remarks
2019-01-21 16:54 19 -9 0 27 310° 20 31 30.28 30.28 10 CLR Peak wind: 39 mph (34 kts) from 290° at 00 min
2019-01-21 15:54 20 -9 1 26 320° 21 30 30.25 30.25 10 CLR Peak wind: 39 mph (34 kts) from 330° at 22 min
2019-01-21 14:54 19 -10 -2 26 310° 22 39 30.22 30.22 10 CLR Peak wind: 40 mph (35 kts) from 320° at 16 min
2019-01-21 13:54 18 -7 -3 31 310° 17 36 30.21 30.21 10 CLR Peak wind: 39 mph (34 kts) from 310° at 21 min
2019-01-21 12:54 17 -7 -4 32 300° 22 37 30.21 30.21 10 FEW050 Peak wind: 39 mph (34 kts) from 300° at 34 min
6-hr Min Temp (1pm): 10.0°F
6-hr Max Temp (1pm): 17.1°F
2019-01-21 11:54 15 -8 -6 34 320° 22 32 30.20 30.21 10 CLR Peak wind: 42 mph (37 kts) from 300° at 10 min
2019-01-21 10:54 14 -8 -9 36 300° 18 37 30.19 30.19 10 CLR Peak wind: 43 mph (38 kts) from 320° at 33 min
2019-01-21 09:54 13 -9 -10 35 310° 20 38 30.16 30.16 10 FEW095 Peak wind: 42 mph (37 kts) from 310° at 05 min
2019-01-21 08:54 11 -9 -13 39 310° 20 36 30.12 30.12 10 CLR Peak wind: 41 mph (36 kts) from 310° at 09 min
2019-01-21 07:54 10 -9 -13 40 310° 25 35 30.08 30.09 10 CLR Peak wind: 40 mph (35 kts) from 300° at 36 min
2019-01-21 06:54 10 -8 -12 42 300° 20 30 30.05 30.06 10 CLR Peak wind: 33 mph (29 kts) from 310° at 33 min
24-hr Precip Total (7am): 0.11"
6-hr Min Temp (7am): 10.0°F
6-hr Max Temp (7am): 16.0°F
2019-01-21 05:54 10 -8 -13 42 310° 21 32 30.03 30.03 10 CLR Peak wind: 35 mph (31 kts) from 300° at 40 min
2019-01-21 04:54 11 -8 -11 41 300° 23 30 30.01 30.01 10 CLR Peak wind: 34 mph (30 kts) from 290° at 55 min
2019-01-21 03:54 12 -6 -11 43 310° 23 35 29.99 29.99 10 CLR Peak wind: 39 mph (34 kts) from 290° at 29 min
2019-01-21 02:54 13 -5 -9 43 300° 21 31 29.97 29.97 10 CLR Peak wind: 32 mph (28 kts) from 330° at 25 min
2019-01-21 01:54 15 -4 -6 41 300° 23 32 29.95 29.95 10 CLR Peak wind: 37 mph (33 kts) from 300° at 01 min
2019-01-21 00:54 16 -2 -4 44 310° 15 30 29.91 29.92 10 FEW043 Peak wind: 31 mph (27 kts) from 320° at 11 min
6-hr Min Temp (1am): 16.0°F
6-hr Max Temp (1am): 23.0°F
2019-01-20 23:54 17 -1 -4 44 320° 25 35 29.89 29.90 10 CLR Peak wind: 37 mph (33 kts) from 320° at 41 min
24-hr Min Temp (12am): 17.1°F
24-hr Max Temp (12am): 48.0°F
2019-01-20 22:54 18 1 -1 46 320° 22 28 29.86 29.86 10 FEW042 Peak wind: 41 mph (36 kts) from 320° at 40 min
Pressure rising rapidly
2019-01-20 21:54 20 3 0 47 320° 26 37 29.80 29.80 10 BKN037 Peak wind: 36 mph (32 kts) from 310° at 48 min
2019-01-20 20:54 21 7 3 53 320° 13 28 29.78 29.78 10 OVC037 Peak wind: 37 mph (33 kts) from 340° at 25 min
2019-01-20 19:54 22 7 4 51 330° 18 30 29.75 29.75 10 BKN037 Peak wind: 39 mph (34 kts) from 340° at 09 min
2019-01-20 18:54 23 9 5 54 330° 21 32 29.72 29.72 10 SCT034 Peak wind: 32 mph (28 kts) from 330° at 48 min
6-hr Min Temp (7pm): 23.0°F
6-hr Max Temp (7pm): 42.1°F
2019-01-20 17:54 25 10 8 52 320° 20 31 29.67 29.67 10 CLR Peak wind: 37 mph (33 kts) from 310° at 27 min

Support USWX by starting your Amazon purchase here.